Time;durP1;ratioP1;P1;durP2;ratioP2;P2;SDS_P1;SDS_P2;PMS_P1;PMS_P2;Temp;Humidity;BMP_temperature;BMP_pressure;BME280_temperature;BME280_humidity;BME280_pressure;Samples;Min_cycle;Max_cycle;Signal;HPM_P1;HPM_P2
2023/08/02 00:01:09;;;;;;;7.55;3.65;;;17.60;99.90;;;;;;4997461;28;20399;-50
2023/08/02 00:03:55;;;;;;;7.45;3.50;;;17.60;99.90;;;;;;5010912;28;20629;-47
2023/08/02 00:06:41;;;;;;;4.65;3.30;;;17.60;99.90;;;;;;5011001;28;20100;-51
2023/08/02 00:09:27;;;;;;;7.00;3.92;;;17.50;99.90;;;;;;5010323;28;20109;-48
2023/08/02 00:12:13;;;;;;;4.53;3.40;;;17.50;99.90;;;;;;5011580;28;20054;-47
2023/08/02 00:14:59;;;;;;;8.80;4.20;;;17.60;99.90;;;;;;5010766;28;20033;-55
2023/08/02 00:17:45;;;;;;;4.95;3.90;;;17.50;99.90;;;;;;5011015;28;20022;-46
2023/08/02 00:20:31;;;;;;;8.95;3.58;;;17.40;99.90;;;;;;5011986;28;20064;-48
2023/08/02 00:23:17;;;;;;;5.20;3.30;;;17.50;99.90;;;;;;5011675;28;20022;-48
2023/08/02 00:26:03;;;;;;;5.43;3.33;;;17.60;99.90;;;;;;5010575;28;20080;-51
2023/08/02 00:28:49;;;;;;;5.60;3.25;;;17.50;99.90;;;;;;5010774;28;20169;-55
2023/08/02 00:31:35;;;;;;;4.03;3.30;;;17.50;99.90;;;;;;4996652;28;20018;-56
2023/08/02 00:34:21;;;;;;;7.68;3.63;;;17.30;99.90;;;;;;5009960;28;20038;-47
2023/08/02 00:37:06;;;;;;;8.55;4.00;;;17.40;99.90;;;;;;5010381;28;20021;-54
2023/08/02 00:39:52;;;;;;;4.63;3.40;;;17.40;99.90;;;;;;5010019;28;20026;-53
2023/08/02 00:42:38;;;;;;;4.00;2.90;;;17.40;99.90;;;;;;5010022;28;20184;-51
2023/08/02 00:45:24;;;;;;;4.00;2.97;;;17.40;99.90;;;;;;5010161;28;20503;-50
2023/08/02 00:48:10;;;;;;;5.70;3.20;;;17.30;99.90;;;;;;5009034;28;20100;-50
2023/08/02 00:50:56;;;;;;;6.25;3.33;;;17.30;99.90;;;;;;5010780;28;20046;-48
2023/08/02 00:53:46;;;;;;;6.00;3.38;;;17.40;99.90;;;;;;5010743;28;20105;-46
2023/08/02 00:56:33;;;;;;;7.57;3.63;;;17.20;99.90;;;;;;5009346;28;20521;-46
2023/08/02 00:59:18;;;;;;;7.10;3.45;;;17.20;99.90;;;;;;5010691;28;20037;-49
2023/08/02 01:02:06;;;;;;;6.30;3.20;;;17.10;99.90;;;;;;5010079;28;20053;-49
2023/08/02 01:04:52;;;;;;;6.40;3.42;;;17.20;99.90;;;;;;5010211;28;20033;-49
2023/08/02 01:07:51;;;;;;;6.20;3.60;;;17.20;99.90;;;;;;5014447;28;20105;-52
2023/08/02 01:11:00;;;;;;;5.55;3.78;;;17.40;99.90;;;;;;5013549;28;20439;-45
2023/08/02 01:13:51;;;;;;;5.45;3.33;;;17.40;99.90;;;;;;5013801;28;20064;-53
2023/08/02 01:16:37;;;;;;;4.05;3.60;;;17.40;99.90;;;;;;5013175;28;20044;-49
2023/08/02 01:19:24;;;;;;;4.85;3.70;;;17.40;99.90;;;;;;4999113;28;20037;-46
2023/08/02 01:22:10;;;;;;;7.10;3.60;;;17.30;99.90;;;;;;5012810;28;20035;-48
2023/08/02 01:24:59;;;;;;;5.20;3.10;;;17.30;99.90;;;;;;5014215;28;20410;-52
2023/08/02 01:27:49;;;;;;;4.95;3.28;;;17.30;99.90;;;;;;5013285;28;20443;-49
2023/08/02 01:30:38;;;;;;;5.70;3.40;;;17.30;99.90;;;;;;5013501;28;20033;-57
2023/08/02 01:33:25;;;;;;;7.45;3.83;;;17.30;99.90;;;;;;5013702;28;20513;-56
2023/08/02 01:36:11;;;;;;;4.32;3.22;;;17.20;99.90;;;;;;5012813;28;20018;-57
2023/08/02 01:38:57;;;;;;;5.22;3.35;;;17.40;99.90;;;;;;5013892;28;20026;-56
2023/08/02 01:41:43;;;;;;;5.88;3.10;;;17.40;99.90;;;;;;5015061;28;20541;-55
2023/08/02 01:44:29;;;;;;;5.93;3.53;;;17.50;99.90;;;;;;5014493;28;20089;-57
2023/08/02 01:47:17;;;;;;;6.28;3.50;;;17.50;99.90;;;;;;5013440;28;20056;-58
2023/08/02 01:50:03;;;;;;;7.80;3.30;;;17.50;99.90;;;;;;5012734;28;20286;-58
2023/08/02 01:52:49;;;;;;;5.60;3.60;;;17.50;99.90;;;;;;5001131;28;20030;-55
2023/08/02 01:55:35;;;;;;;4.63;3.15;;;17.40;99.90;;;;;;5013652;28;20060;-55
2023/08/02 01:58:21;;;;;;;9.35;3.58;;;17.50;99.90;;;;;;4999290;28;20030;-52
2023/08/02 02:01:07;;;;;;;8.00;3.22;;;17.40;99.90;;;;;;4998102;28;20022;-52
2023/08/02 02:03:53;;;;;;;4.93;3.20;;;17.40;99.90;;;;;;5013084;28;20112;-46
2023/08/02 02:06:39;;;;;;;6.25;3.70;;;17.30;99.90;;;;;;5012807;28;20018;-47
2023/08/02 02:09:25;;;;;;;5.68;3.88;;;17.30;99.90;;;;;;5013776;28;20109;-44
2023/08/02 02:12:11;;;;;;;5.75;3.00;;;17.20;99.90;;;;;;5012181;28;20395;-49
2023/08/02 02:14:57;;;;;;;4.65;3.13;;;17.30;99.90;;;;;;5012941;28;20033;-46
2023/08/02 02:17:43;;;;;;;4.88;3.15;;;17.20;99.90;;;;;;4997753;28;20030;-47
2023/08/02 02:20:29;;;;;;;5.20;3.20;;;17.20;99.90;;;;;;5012434;28;20033;-48
2023/08/02 02:23:14;;;;;;;5.43;3.45;;;17.20;99.90;;;;;;5012814;28;20654;-52
2023/08/02 02:26:00;;;;;;;5.20;3.17;;;17.20;99.90;;;;;;5012071;28;20029;-50
2023/08/02 02:28:46;;;;;;;5.85;3.30;;;17.20;99.90;;;;;;5011936;28;20065;-52
2023/08/02 02:31:32;;;;;;;5.53;3.33;;;17.20;99.90;;;;;;5012259;28;20057;-54
2023/08/02 02:34:18;;;;;;;5.43;3.05;;;17.20;99.90;;;;;;5013108;28;20030;-48
2023/08/02 02:37:04;;;;;;;5.50;3.17;;;17.20;99.90;;;;;;5012803;28;20498;-51
2023/08/02 02:39:50;;;;;;;5.50;2.83;;;17.20;99.90;;;;;;5011221;28;20148;-50
2023/08/02 02:42:43;;;;;;;5.10;3.22;;;17.20;99.90;;;;;;5012363;28;20049;-52
2023/08/02 02:45:29;;;;;;;5.50;3.33;;;17.20;99.90;;;;;;5011947;28;20022;-50
2023/08/02 02:48:15;;;;;;;5.85;3.38;;;17.20;99.90;;;;;;5011647;28;20105;-51
2023/08/02 02:51:01;;;;;;;7.30;3.67;;;17.20;99.90;;;;;;5011514;28;20026;-53
2023/08/02 02:53:47;;;;;;;5.75;3.10;;;17.10;99.90;;;;;;5012569;28;20022;-49
2023/08/02 02:56:33;;;;;;;5.97;3.03;;;17.10;99.90;;;;;;5011268;28;20509;-54
2023/08/02 02:59:19;;;;;;;5.03;3.03;;;17.00;99.90;;;;;;5012080;28;20022;-54
2023/08/02 03:02:05;;;;;;;4.70;2.78;;;17.00;99.90;;;;;;5011310;28;20022;-53
2023/08/02 03:04:51;;;;;;;6.25;3.22;;;17.00;99.90;;;;;;5011982;28;20541;-55
2023/08/02 03:07:37;;;;;;;7.75;3.67;;;17.00;99.90;;;;;;5011722;28;20659;-52
2023/08/02 03:10:23;;;;;;;6.47;3.45;;;17.00;99.90;;;;;;5012166;28;20104;-53
2023/08/02 03:13:09;;;;;;;5.05;3.13;;;16.90;99.90;;;;;;5011189;28;20411;-48
2023/08/02 03:15:54;;;;;;;6.43;3.83;;;16.90;99.90;;;;;;5010590;28;20021;-54
2023/08/02 03:18:40;;;;;;;9.30;3.55;;;16.80;99.90;;;;;;4996087;28;20030;-50
2023/08/02 03:21:26;;;;;;;6.50;3.03;;;16.80;99.90;;;;;;5011818;28;20399;-53
2023/08/02 03:24:12;;;;;;;6.72;3.45;;;16.70;99.90;;;;;;4996680;28;20019;-52
2023/08/02 03:26:58;;;;;;;5.10;2.80;;;16.70;99.90;;;;;;4996399;28;20018;-54
2023/08/02 03:29:44;;;;;;;8.52;3.22;;;16.70;99.90;;;;;;5011043;28;20104;-49
2023/08/02 03:32:30;;;;;;;7.95;3.30;;;16.80;99.90;;;;;;5009977;28;20494;-49
2023/08/02 03:35:16;;;;;;;5.82;3.35;;;16.70;99.90;;;;;;5009600;28;20037;-52
2023/08/02 03:38:02;;;;;;;4.10;3.17;;;16.60;99.90;;;;;;5011092;28;20495;-54
2023/08/02 03:40:48;;;;;;;5.85;3.42;;;16.70;99.90;;;;;;5011338;28;20052;-50
2023/08/02 03:43:34;;;;;;;9.23;3.10;;;16.70;99.90;;;;;;5011441;28;20487;-52
2023/08/02 03:46:20;;;;;;;6.05;3.22;;;16.70;99.90;;;;;;5011332;28;20048;-50
2023/08/02 03:49:06;;;;;;;9.55;3.80;;;16.70;99.90;;;;;;5010669;28;20030;-47
2023/08/02 03:51:52;;;;;;;5.68;2.95;;;16.60;99.90;;;;;;5010575;28;20494;-50
2023/08/02 03:54:38;;;;;;;6.55;3.10;;;16.60;99.90;;;;;;5010794;28;20471;-45
2023/08/02 03:57:24;;;;;;;8.48;3.85;;;16.60;99.90;;;;;;5011779;28;20036;-45
2023/08/02 04:00:10;;;;;;;6.47;3.53;;;16.40;99.90;;;;;;4999112;28;20033;-51
2023/08/02 04:02:56;;;;;;;7.00;3.47;;;16.40;99.90;;;;;;5014206;28;20237;-46
2023/08/02 04:05:43;;;;;;;4.60;2.80;;;16.40;99.90;;;;;;5010338;28;20398;-46
2023/08/02 04:08:29;;;;;;;7.60;3.70;;;16.40;99.90;;;;;;5011651;28;20487;-50
2023/08/02 04:11:16;;;;;;;10.63;3.75;;;16.30;99.90;;;;;;5010591;28;20113;-50
2023/08/02 04:14:02;;;;;;;7.75;3.15;;;16.30;99.90;;;;;;5011136;28;20022;-47
2023/08/02 04:16:47;;;;;;;5.43;3.42;;;16.30;99.90;;;;;;4995898;28;20406;-47
2023/08/02 04:19:33;;;;;;;5.90;3.22;;;16.30;99.90;;;;;;4995897;28;20045;-48
2023/08/02 04:22:20;;;;;;;8.85;3.75;;;16.30;99.90;;;;;;5012475;28;20033;-52
2023/08/02 04:25:06;;;;;;;6.10;3.15;;;16.20;99.90;;;;;;5010404;28;20114;-48
2023/08/02 04:27:52;;;;;;;8.75;3.40;;;16.10;99.90;;;;;;5010222;28;21125;-50
2023/08/02 04:30:38;;;;;;;7.57;3.45;;;16.10;99.90;;;;;;5008382;28;20018;-49
2023/08/02 04:33:24;;;;;;;6.65;3.42;;;16.10;99.90;;;;;;5010852;28;20026;-51
2023/08/02 04:36:10;;;;;;;6.97;3.78;;;16.20;99.90;;;;;;5011267;28;20057;-59
2023/08/02 04:38:55;;;;;;;6.97;3.35;;;16.30;99.90;;;;;;5010538;28;20046;-48
2023/08/02 04:41:41;;;;;;;5.43;3.10;;;16.40;99.90;;;;;;5015286;28;20681;-45
2023/08/02 04:44:28;;;;;;;5.80;3.13;;;16.40;99.90;;;;;;5014375;28;20042;-50
2023/08/02 04:47:14;;;;;;;5.32;3.20;;;16.40;99.90;;;;;;5014091;28;20040;-53
2023/08/02 04:50:00;;;;;;;7.07;3.53;;;16.40;99.90;;;;;;5015081;28;20528;-52
2023/08/02 04:52:46;;;;;;;4.97;3.20;;;16.30;99.90;;;;;;5013540;28;20034;-50
2023/08/02 04:55:44;;;;;;;7.65;3.55;;;16.30;99.90;;;;;;5014841;28;20030;-49
2023/08/02 04:58:30;;;;;;;7.78;3.53;;;16.40;99.90;;;;;;5014050;28;20491;-46
2023/08/02 05:01:16;;;;;;;6.63;3.30;;;16.50;99.90;;;;;;5013669;28;20030;-49
2023/08/02 05:04:02;;;;;;;4.72;3.22;;;16.50;99.90;;;;;;5014501;28;20026;-47
2023/08/02 05:06:48;;;;;;;6.75;3.63;;;16.60;99.90;;;;;;5013633;28;20418;-50
2023/08/02 05:09:34;;;;;;;7.00;3.50;;;16.70;99.90;;;;;;5014915;28;20104;-46
2023/08/02 05:12:20;;;;;;;9.52;3.75;;;16.80;99.90;;;;;;5013500;28;20033;-45
2023/08/02 05:15:07;;;;;;;7.97;3.58;;;16.90;99.90;;;;;;4999188;28;20056;-47
2023/08/02 05:17:53;;;;;;;8.02;3.60;;;17.00;99.90;;;;;;4999650;28;20121;-52
2023/08/02 05:20:39;;;;;;;6.00;3.08;;;17.10;99.90;;;;;;5012047;28;20026;-52
2023/08/02 05:23:25;;;;;;;3.97;3.00;;;17.20;99.90;;;;;;5014544;28;20030;-47
2023/08/02 05:26:12;;;;;;;6.72;3.47;;;17.20;99.90;;;;;;5012087;28;20026;-47
2023/08/02 05:28:58;;;;;;;7.57;3.80;;;17.30;99.90;;;;;;5011917;28;20058;-44
2023/08/02 05:31:44;;;;;;;5.78;3.28;;;17.40;99.90;;;;;;5013823;28;20064;-47
2023/08/02 05:34:30;;;;;;;5.78;3.47;;;17.40;99.90;;;;;;5012644;28;20025;-47
2023/08/02 05:37:17;;;;;;;6.60;3.53;;;17.40;99.90;;;;;;5013260;28;20041;-44
2023/08/02 05:40:03;;;;;;;5.30;3.10;;;17.30;99.90;;;;;;5013673;28;20401;-46
2023/08/02 05:42:49;;;;;;;5.28;3.38;;;17.40;99.90;;;;;;5012537;28;20109;-45
2023/08/02 05:45:35;;;;;;;5.10;3.17;;;17.50;99.90;;;;;;5013445;28;20022;-50
2023/08/02 05:48:21;;;;;;;5.40;3.33;;;17.50;99.90;;;;;;5012667;28;20059;-47
2023/08/02 05:51:07;;;;;;;6.03;2.97;;;17.60;99.90;;;;;;5007765;28;20411;-45
2023/08/02 05:53:52;;;;;;;10.23;3.53;;;17.80;99.90;;;;;;5011206;28;20495;-52
2023/08/02 05:56:38;;;;;;;5.88;2.78;;;17.90;99.90;;;;;;4994565;28;20065;-46
2023/08/02 05:59:27;;;;;;;4.10;2.90;;;18.00;99.90;;;;;;4980223;28;20034;-49
2023/08/02 06:02:13;;;;;;;4.93;3.17;;;18.10;99.90;;;;;;5005190;28;20038;-50
2023/08/02 06:04:59;;;;;;;5.55;3.55;;;18.00;99.90;;;;;;5014220;28;20089;-44
2023/08/02 06:07:45;;;;;;;7.30;3.70;;;18.00;99.90;;;;;;5013784;28;20026;-47
2023/08/02 06:10:31;;;;;;;4.80;2.85;;;18.10;99.90;;;;;;5013061;28;20089;-45
2023/08/02 06:13:17;;;;;;;6.25;3.00;;;18.30;99.90;;;;;;5013914;28;20072;-47
2023/08/02 06:16:04;;;;;;;4.40;2.97;;;18.40;99.90;;;;;;4998952;28;20038;-45
2023/08/02 06:18:50;;;;;;;7.18;3.40;;;18.30;99.90;;;;;;4999525;28;20030;-44
2023/08/02 06:21:36;;;;;;;5.45;3.22;;;18.30;99.90;;;;;;5014203;28;20049;-45
2023/08/02 06:24:22;;;;;;;4.40;3.03;;;18.30;99.90;;;;;;5013634;28;20018;-45
2023/08/02 06:27:08;;;;;;;4.15;2.97;;;18.20;99.90;;;;;;5012951;28;20068;-44
2023/08/02 06:29:54;;;;;;;3.95;3.08;;;18.30;99.90;;;;;;5012869;28;20703;-46
2023/08/02 06:32:40;;;;;;;5.18;2.95;;;18.50;99.90;;;;;;5013185;28;20750;-45
2023/08/02 06:35:26;;;;;;;6.80;2.97;;;18.50;99.90;;;;;;5012758;28;20030;-47
2023/08/02 06:38:11;;;;;;;4.40;2.90;;;18.70;99.90;;;;;;5013411;28;20403;-54
2023/08/02 06:40:58;;;;;;;9.60;4.07;;;18.80;99.90;;;;;;5013138;28;20375;-49
2023/08/02 06:43:43;;;;;;;4.28;3.03;;;18.90;99.90;;;;;;5013246;28;20038;-47
2023/08/02 06:46:30;;;;;;;5.15;3.28;;;19.00;99.90;;;;;;5012210;28;20030;-52
2023/08/02 06:49:16;;;;;;;3.50;2.92;;;19.20;99.90;;;;;;5012591;28;20072;-52
2023/08/02 06:52:02;;;;;;;4.80;3.10;;;19.20;99.90;;;;;;5011808;28;20438;-47
2023/08/02 06:54:52;;;;;;;4.70;3.22;;;18.90;99.90;;;;;;5012618;28;20026;-44
2023/08/02 06:57:38;;;;;;;5.35;3.40;;;18.90;99.90;;;;;;4998153;28;20049;-50
2023/08/02 07:00:24;;;;;;;5.35;3.35;;;18.90;99.90;;;;;;5012764;28;20084;-53
2023/08/02 07:03:10;;;;;;;5.40;3.85;;;18.90;99.90;;;;;;5010677;28;20030;-52
2023/08/02 07:05:56;;;;;;;6.82;3.85;;;18.80;99.90;;;;;;5012181;28;20025;-50
2023/08/02 07:08:42;;;;;;;8.35;3.70;;;18.70;99.90;;;;;;5005096;28;20033;-51
2023/08/02 07:11:28;;;;;;;4.20;3.30;;;18.70;99.90;;;;;;5014070;28;20529;-49
2023/08/02 07:14:14;;;;;;;5.30;3.22;;;18.70;99.90;;;;;;4993807;28;20046;-50
2023/08/02 07:17:00;;;;;;;5.90;3.88;;;18.70;99.90;;;;;;5009296;28;20041;-48
2023/08/02 07:19:47;;;;;;;4.07;3.47;;;18.80;99.90;;;;;;5004310;28;20126;-49
2023/08/02 07:22:33;;;;;;;6.65;3.65;;;18.90;99.90;;;;;;5004724;28;20025;-47
2023/08/02 07:25:19;;;;;;;4.20;3.30;;;19.10;99.90;;;;;;4995753;28;20030;-49
2023/08/02 07:28:06;;;;;;;6.90;3.63;;;19.20;99.90;;;;;;5002154;28;20114;-48
2023/08/02 07:30:51;;;;;;;6.82;3.65;;;19.40;99.90;;;;;;5003554;28;20495;-48
2023/08/02 07:33:38;;;;;;;4.22;3.53;;;19.50;99.90;;;;;;5005379;28;20093;-44
2023/08/02 07:36:24;;;;;;;6.38;3.72;;;19.60;99.90;;;;;;5007343;28;20034;-48
2023/08/02 07:39:10;;;;;;;5.35;3.50;;;19.70;99.90;;;;;;5010111;28;20065;-50
2023/08/02 07:41:55;;;;;;;4.63;3.30;;;19.90;99.90;;;;;;5012450;28;20487;-46
2023/08/02 07:44:41;;;;;;;5.35;3.33;;;19.80;99.90;;;;;;5012160;28;20109;-47
2023/08/02 07:47:27;;;;;;;8.35;4.30;;;19.80;99.90;;;;;;5012217;28;20022;-49
2023/08/02 07:50:13;;;;;;;9.18;3.70;;;19.90;99.90;;;;;;4997825;28;20109;-50
2023/08/02 07:52:59;;;;;;;5.70;3.50;;;20.20;99.90;;;;;;5010224;28;20026;-55
2023/08/02 07:55:45;;;;;;;5.38;3.60;;;20.30;99.90;;;;;;5010265;28;20141;-52
2023/08/02 07:58:31;;;;;;;4.90;3.67;;;20.20;99.90;;;;;;5010034;28;20371;-52
2023/08/02 08:01:17;;;;;;;7.05;4.18;;;20.00;99.90;;;;;;5008123;28;20092;-55
2023/08/02 08:04:03;;;;;;;4.82;3.50;;;20.00;99.90;;;;;;5009574;28;20033;-56
2023/08/02 08:06:49;;;;;;;5.65;4.28;;;20.20;99.90;;;;;;5010806;28;20026;-56
2023/08/02 08:09:35;;;;;;;4.43;3.70;;;20.10;99.90;;;;;;5010075;28;20673;-48
2023/08/02 08:12:21;;;;;;;7.32;4.40;;;20.00;99.90;;;;;;4971776;28;20112;-51
2023/08/02 08:15:07;;;;;;;8.23;3.65;;;19.90;99.90;;;;;;5009490;28;20057;-52
2023/08/02 08:17:53;;;;;;;6.00;4.15;;;20.00;99.90;;;;;;5009555;28;20045;-50
2023/08/02 08:20:39;;;;;;;7.28;4.03;;;20.20;99.90;;;;;;5010131;28;20022;-50
2023/08/02 08:23:26;;;;;;;6.63;4.05;;;20.30;99.90;;;;;;5010721;28;20034;-50
2023/08/02 08:26:12;;;;;;;4.35;3.78;;;20.30;99.90;;;;;;5010678;28;20041;-52
2023/08/02 08:28:58;;;;;;;5.72;3.72;;;20.30;99.90;;;;;;5010548;28;20495;-44
2023/08/02 08:31:44;;;;;;;6.13;4.30;;;20.30;99.90;;;;;;5009838;28;20518;-50
2023/08/02 08:34:30;;;;;;;6.03;4.22;;;20.30;99.90;;;;;;5007980;28;20065;-48
2023/08/02 08:37:15;;;;;;;6.97;4.35;;;20.50;99.90;;;;;;5008344;28;20084;-49
2023/08/02 08:40:01;;;;;;;6.93;4.47;;;20.70;99.90;;;;;;5008262;28;20057;-52
2023/08/02 08:42:55;;;;;;;8.15;4.38;;;20.90;99.90;;;;;;5009209;28;20034;-51
2023/08/02 08:45:42;;;;;;;8.38;5.15;;;21.10;99.80;;;;;;5005837;28;20037;-49
2023/08/02 08:48:30;;;;;;;6.28;4.20;;;21.30;99.80;;;;;;5001022;28;20029;-51
2023/08/02 08:51:20;;;;;;;5.75;4.10;;;21.30;99.40;;;;;;5008998;28;20029;-46
2023/08/02 08:54:15;;;;;;;6.93;5.18;;;21.20;99.80;;;;;;5010130;28;20053;-47
2023/08/02 08:57:02;;;;;;;5.13;4.30;;;21.20;99.90;;;;;;5009939;28;20022;-47
2023/08/02 08:59:48;;;;;;;5.25;3.83;;;21.20;99.50;;;;;;5010267;28;20152;-45
2023/08/02 09:02:36;;;;;;;9.98;4.75;;;21.00;99.30;;;;;;5008936;28;20726;-49
2023/08/02 09:05:23;;;;;;;6.75;4.10;;;20.80;99.90;;;;;;5009971;28;20026;-47
2023/08/02 09:08:09;;;;;;;5.15;4.35;;;20.70;99.90;;;;;;5010497;28;20037;-45
2023/08/02 09:10:55;;;;;;;7.68;5.00;;;20.60;99.90;;;;;;5008076;28;20032;-47
2023/08/02 09:13:41;;;;;;;7.50;4.55;;;20.70;99.90;;;;;;5008804;28;20022;-46
2023/08/02 09:16:27;;;;;;;6.40;4.05;;;20.60;99.90;;;;;;5009460;28;20010;-46
2023/08/02 09:19:27;;;;;;;7.40;4.57;;;20.60;99.90;;;;;;5007253;28;20116;-46
2023/08/02 09:22:15;;;;;;;6.35;4.47;;;20.60;99.90;;;;;;5008506;28;20045;-44
2023/08/02 09:25:03;;;;;;;7.00;4.15;;;20.60;99.90;;;;;;5010405;28;20558;-47
2023/08/02 09:27:51;;;;;;;9.23;5.13;;;20.70;99.80;;;;;;5011225;28;20108;-48
2023/08/02 09:30:37;;;;;;;7.85;4.05;;;20.70;99.90;;;;;;5012821;28;20026;-50
2023/08/02 09:33:23;;;;;;;6.93;4.72;;;20.70;99.90;;;;;;5014964;28;20026;-49
2023/08/02 09:36:09;;;;;;;5.55;4.30;;;20.70;99.90;;;;;;5005672;28;20041;-46
2023/08/02 09:39:03;;;;;;;8.73;4.60;;;20.70;99.90;;;;;;5011483;28;20045;-46
2023/08/02 09:41:49;;;;;;;11.05;5.60;;;20.70;99.70;;;;;;5014316;28;20022;-45
2023/08/02 09:44:35;;;;;;;6.80;4.43;;;20.60;99.60;;;;;;5008714;28;20026;-48
2023/08/02 09:47:21;;;;;;;8.68;4.93;;;20.70;99.60;;;;;;5011530;28;20014;-49
2023/08/02 09:50:10;;;;;;;10.48;5.10;;;20.80;99.60;;;;;;5012580;28;20022;-49
2023/08/02 09:52:56;;;;;;;10.93;6.50;;;20.90;99.70;;;;;;5012417;28;20036;-47
2023/08/02 09:55:46;;;;;;;9.52;6.30;;;21.10;99.40;;;;;;5013166;28;20034;-52
2023/08/02 09:58:35;;;;;;;8.93;5.45;;;21.30;99.20;;;;;;5003781;28;20026;-49
2023/08/02 10:01:25;;;;;;;12.88;5.82;;;21.30;99.00;;;;;;5012627;28;20174;-49
2023/08/02 10:04:15;;;;;;;6.55;4.72;;;21.30;98.60;;;;;;5014370;28;20053;-49
2023/08/02 10:07:08;;;;;;;9.45;4.82;;;21.20;98.70;;;;;;5013064;28;20119;-53
2023/08/02 10:09:59;;;;;;;6.65;4.05;;;21.00;98.90;;;;;;5014150;28;20102;-47
2023/08/02 10:13:16;;;;;;;6.80;4.93;;;20.90;99.30;;;;;;5014074;28;20120;-46
2023/08/02 10:16:03;;;;;;;6.57;4.30;;;20.90;99.30;;;;;;4999440;28;20026;-50
2023/08/02 10:18:50;;;;;;;7.10;4.45;;;20.80;99.10;;;;;;5013532;28;20030;-48
2023/08/02 10:21:39;;;;;;;7.32;4.68;;;20.70;99.30;;;;;;5014017;28;20042;-49
2023/08/02 10:24:26;;;;;;;10.45;5.07;;;20.70;99.40;;;;;;5012257;28;20045;-53
2023/08/02 10:27:13;;;;;;;5.72;4.28;;;20.70;99.50;;;;;;5013152;28;20053;-52
2023/08/02 10:30:01;;;;;;;7.18;4.43;;;20.70;99.50;;;;;;5013360;28;20030;-47
2023/08/02 10:33:14;;;;;;;6.85;4.65;;;20.70;99.60;;;;;;5013031;28;20041;-48
2023/08/02 10:36:05;;;;;;;11.13;5.38;;;20.80;99.60;;;;;;5013154;28;20499;-54
2023/08/02 10:38:54;;;;;;;8.48;4.93;;;20.90;99.40;;;;;;5012305;28;20048;-49
2023/08/02 10:41:57;;;;;;;7.32;3.83;;;20.90;99.00;;;;;;4999182;28;20022;-53
2023/08/02 10:44:55;;;;;;;6.47;4.60;;;20.90;99.00;;;;;;5012657;28;20111;-49
2023/08/02 10:47:41;;;;;;;5.80;4.35;;;20.70;99.40;;;;;;5013118;28;20056;-51
2023/08/02 10:50:45;;;;;;;7.18;6.00;;;20.70;99.40;;;;;;5003943;28;20018;-46
2023/08/02 10:53:31;;;;;;;7.03;4.35;;;20.70;99.60;;;;;;5010523;28;20026;-51
2023/08/02 10:56:17;;;;;;;13.57;5.78;;;20.70;99.60;;;;;;5010693;28;20453;-49
2023/08/02 10:59:03;;;;;;;7.30;5.63;;;20.70;99.80;;;;;;5010604;28;20445;-53
2023/08/02 11:01:59;;;;;;;7.47;4.47;;;20.70;99.90;;;;;;5012106;28;20114;-54
2023/08/02 11:04:47;;;;;;;5.35;4.38;;;20.60;99.90;;;;;;5011757;28;20064;-53
2023/08/02 11:07:34;;;;;;;6.15;4.47;;;20.60;99.90;;;;;;5009417;28;20022;-47
2023/08/02 11:10:20;;;;;;;9.05;4.47;;;20.70;99.90;;;;;;5009215;28;20418;-45
2023/08/02 11:13:06;;;;;;;7.57;4.78;;;20.70;99.90;;;;;;5011194;28;20026;-46
2023/08/02 11:16:02;;;;;;;6.20;4.50;;;20.70;99.90;;;;;;5009648;28;20029;-44
2023/08/02 11:18:49;;;;;;;7.35;4.43;;;20.70;99.50;;;;;;5001792;28;20022;-47
2023/08/02 11:21:39;;;;;;;7.60;4.60;;;20.70;99.70;;;;;;5010156;28;20084;-51
2023/08/02 11:24:25;;;;;;;8.93;4.70;;;20.80;99.40;;;;;;5011245;28;20038;-48
2023/08/02 11:27:20;;;;;;;7.22;4.30;;;20.80;99.40;;;;;;5009487;28;20014;-48
2023/08/02 11:30:07;;;;;;;7.45;4.53;;;20.80;99.50;;;;;;5011315;28;20418;-47
2023/08/02 11:32:53;;;;;;;6.60;4.70;;;20.80;99.50;;;;;;5010119;28;20018;-48
2023/08/02 11:35:40;;;;;;;7.55;4.53;;;20.90;99.40;;;;;;5010745;28;20387;-55
2023/08/02 11:38:26;;;;;;;5.80;4.20;;;21.00;99.40;;;;;;5011188;28;20026;-51
2023/08/02 11:41:20;;;;;;;5.13;4.05;;;21.10;99.30;;;;;;5006562;28;20021;-53
2023/08/02 11:44:14;;;;;;;5.57;3.70;;;21.20;98.90;;;;;;5010249;28;20026;-49
2023/08/02 11:47:00;;;;;;;5.50;4.55;;;21.20;98.80;;;;;;5009464;28;20014;-52
2023/08/02 11:49:57;;;;;;;5.75;4.75;;;21.30;98.70;;;;;;5011023;28;20026;-53
2023/08/02 11:52:43;;;;;;;10.20;6.82;;;21.30;98.50;;;;;;5006488;28;20387;-54
2023/08/02 11:55:29;;;;;;;7.82;4.20;;;21.20;98.70;;;;;;5010025;28;20030;-53
2023/08/02 11:58:15;;;;;;;5.60;4.32;;;21.10;98.50;;;;;;5011098;28;20444;-53
2023/08/02 12:01:01;;;;;;;8.50;5.90;;;21.10;98.50;;;;;;5011697;28;20030;-53
2023/08/02 12:03:58;;;;;;;7.32;4.03;;;21.20;98.50;;;;;;5011156;28;20491;-55
2023/08/02 12:06:52;;;;;;;7.80;4.00;;;21.30;98.10;;;;;;5011227;28;20533;-49
2023/08/02 12:09:45;;;;;;;7.40;4.07;;;21.20;97.90;;;;;;5011558;28;20018;-53
2023/08/02 12:12:33;;;;;;;5.13;3.95;;;21.30;97.80;;;;;;5011602;28;20037;-54
2023/08/02 12:15:19;;;;;;;7.72;4.38;;;21.50;97.80;;;;;;5010692;28;20018;-52
2023/08/02 12:18:06;;;;;;;6.38;4.35;;;21.60;97.40;;;;;;5011087;28;20022;-49
2023/08/02 12:20:53;;;;;;;7.15;4.30;;;21.60;97.10;;;;;;5011685;28;20402;-57
2023/08/02 12:23:39;;;;;;;6.35;4.35;;;21.50;97.10;;;;;;5011900;28;20052;-50
2023/08/02 12:26:33;;;;;;;8.38;4.20;;;21.50;97.60;;;;;;5011466;28;20037;-54
2023/08/02 12:29:26;;;;;;;10.40;4.30;;;21.40;97.30;;;;;;5012780;28;20038;-55
2023/08/02 12:32:28;;;;;;;9.10;4.70;;;21.50;97.40;;;;;;5010652;28;20085;-54
2023/08/02 12:35:14;;;;;;;10.80;5.35;;;21.40;97.40;;;;;;5011221;28;20030;-50
2023/08/02 12:38:00;;;;;;;8.57;3.88;;;21.40;97.50;;;;;;5011518;28;20030;-51
2023/08/02 12:40:46;;;;;;;5.20;3.63;;;21.30;97.60;;;;;;4997400;28;20030;-54
2023/08/02 12:43:32;;;;;;;8.82;4.18;;;21.30;97.70;;;;;;5011541;28;20033;-54
2023/08/02 12:46:19;;;;;;;7.07;3.40;;;21.40;97.70;;;;;;5010116;28;20029;-54
2023/08/02 12:49:05;;;;;;;5.40;3.65;;;21.50;97.70;;;;;;5011328;28;20104;-47
2023/08/02 12:51:51;;;;;;;5.72;3.25;;;21.40;98.00;;;;;;5010702;28;20108;-47
2023/08/02 12:54:37;;;;;;;5.55;3.25;;;21.30;98.20;;;;;;5012656;28;20026;-51
2023/08/02 12:57:23;;;;;;;11.18;3.60;;;21.20;98.50;;;;;;5011209;28;20034;-51
2023/08/02 13:00:11;;;;;;;7.72;3.20;;;21.20;98.80;;;;;;5011070;28;20026;-56
2023/08/02 13:02:57;;;;;;;6.35;2.97;;;21.20;98.80;;;;;;5014579;28;20022;-53
2023/08/02 13:05:43;;;;;;;5.10;2.63;;;21.20;99.10;;;;;;5015373;28;20106;-56
2023/08/02 13:08:29;;;;;;;4.13;2.60;;;21.20;99.20;;;;;;5014970;28;20075;-51
2023/08/02 13:11:15;;;;;;;3.13;2.55;;;21.20;99.30;;;;;;5014558;28;20072;-55
2023/08/02 13:14:01;;;;;;;2.58;2.35;;;21.10;99.40;;;;;;5015699;28;20034;-54
2023/08/02 13:16:46;;;;;;;4.20;2.80;;;21.10;99.80;;;;;;5014259;28;20613;-57
2023/08/02 13:19:32;;;;;;;3.42;2.60;;;21.10;99.60;;;;;;5014701;28;20061;-56
2023/08/02 13:22:18;;;;;;;4.78;3.33;;;21.20;99.70;;;;;;5014536;28;20033;-57
2023/08/02 13:25:05;;;;;;;3.83;3.20;;;21.10;99.90;;;;;;4999602;28;20533;-54
2023/08/02 13:27:51;;;;;;;5.65;2.95;;;21.00;99.90;;;;;;5013812;28;20038;-56
2023/08/02 13:30:37;;;;;;;6.85;3.53;;;21.00;99.90;;;;;;5014699;28;20101;-55
2023/08/02 13:33:22;;;;;;;6.22;3.35;;;21.00;99.90;;;;;;5014907;28;20030;-57
2023/08/02 13:36:09;;;;;;;3.72;2.78;;;20.90;99.90;;;;;;5015343;28;20060;-56
2023/08/02 13:38:55;;;;;;;8.98;3.17;;;20.90;99.90;;;;;;5000369;28;20105;-60
2023/08/02 13:41:41;;;;;;;6.85;3.15;;;20.90;99.90;;;;;;5014409;28;20133;-57
2023/08/02 13:44:29;;;;;;;3.88;3.10;;;21.00;99.90;;;;;;5014186;28;20030;-56
2023/08/02 13:47:15;;;;;;;3.55;2.78;;;20.90;99.90;;;;;;5013195;28;20041;-55
2023/08/02 13:50:01;;;;;;;3.25;2.90;;;20.70;99.90;;;;;;5014902;28;20088;-57
2023/08/02 13:52:46;;;;;;;6.00;3.67;;;20.60;99.90;;;;;;5014940;28;20434;-57
2023/08/02 13:55:32;;;;;;;4.38;2.80;;;20.50;99.90;;;;;;5013987;28;20422;-58
2023/08/02 13:58:18;;;;;;;3.70;3.08;;;20.50;99.90;;;;;;5014380;28;20034;-56
2023/08/02 14:01:04;;;;;;;4.43;2.80;;;20.50;99.90;;;;;;5014054;28;20033;-50
2023/08/02 14:03:50;;;;;;;3.85;3.25;;;20.50;99.90;;;;;;5014019;28;20033;-56
2023/08/02 14:06:36;;;;;;;5.65;3.47;;;20.50;99.90;;;;;;5013079;28;20036;-54
2023/08/02 14:09:22;;;;;;;4.32;3.15;;;20.40;99.90;;;;;;5013145;28;20022;-57
2023/08/02 14:12:14;;;;;;;4.75;4.05;;;20.40;99.90;;;;;;4999770;28;20029;-58
2023/08/02 14:15:00;;;;;;;3.70;2.90;;;20.40;99.90;;;;;;5013445;28;20053;-55
2023/08/02 14:17:47;;;;;;;3.95;3.05;;;20.40;99.90;;;;;;5012821;28;20084;-57
2023/08/02 14:20:33;;;;;;;3.80;3.08;;;20.40;99.90;;;;;;4999598;28;20076;-57
2023/08/02 14:23:19;;;;;;;5.65;2.90;;;20.50;99.90;;;;;;5012965;28;20084;-55
2023/08/02 14:26:05;;;;;;;3.72;2.97;;;20.40;99.90;;;;;;5014230;28;20129;-57
2023/08/02 14:28:53;;;;;;;5.65;3.60;;;20.30;99.90;;;;;;5012997;28;20410;-57